Terminal Aerodrome Forecast
Issued by NWS

Home | Current Version | Previous Version | Text Only | Print | Product List | Glossary On
Versions: 1 2 3 4 5 6 7 8 9 10 11 12 13 14 15
447
FTPA31 PHFO 201738
TAFSTU
TAF
NSTU 201738Z 2018/2118 09015KT P6SM VCTS SCT015CB BKN040
      TEMPO 2018/2021 10015G28KT 2SM +SHRA BR BKN015
     FM202100 08015KT P6SM VCSH SCT015 BKN040
     FM210000 08015KT P6SM SCT015 SCT040 BKN100=

USA.gov is the U.S. government's official web portal to all federal, state and local government web resources and services.